sensor_id;sensor_type;location;lat;lon;timestamp;pressure;altitude;pressure_sealevel;temperature;humidity
49341;BME280;35209;51.050;13.678;2023-03-20T00:03:56;99974.00;;;9.54;100.00
49341;BME280;35209;51.050;13.678;2023-03-20T00:08:58;99988.97;;;9.82;100.00
49341;BME280;35209;51.050;13.678;2023-03-20T00:14:09;99992.31;;;9.57;100.00
49341;BME280;35209;51.050;13.678;2023-03-20T00:19:17;99990.72;;;9.52;100.00
49341;BME280;35209;51.050;13.678;2023-03-20T00:24:20;99995.09;;;9.51;100.00
49341;BME280;35209;51.050;13.678;2023-03-20T00:29:25;99994.47;;;9.43;100.00
49341;BME280;35209;51.050;13.678;2023-03-20T00:34:27;99988.31;;;9.43;100.00
49341;BME280;35209;51.050;13.678;2023-03-20T00:39:30;99992.84;;;9.69;100.00
49341;BME280;35209;51.050;13.678;2023-03-20T00:44:39;99986.59;;;9.43;100.00
49341;BME280;35209;51.050;13.678;2023-03-20T00:49:48;99988.97;;;9.52;100.00
49341;BME280;35209;51.050;13.678;2023-03-20T00:54:51;99987.72;;;9.34;100.00
49341;BME280;35209;51.050;13.678;2023-03-20T01:00:47;99986.44;;;9.17;100.00
49341;BME280;35209;51.050;13.678;2023-03-20T01:05:29;99982.13;;;9.14;100.00
49341;BME280;35209;51.050;13.678;2023-03-20T01:10:32;99987.84;;;9.30;100.00
49341;BME280;35209;51.050;13.678;2023-03-20T01:15:34;99980.63;;;9.37;100.00
49341;BME280;35209;51.050;13.678;2023-03-20T01:20:37;99979.13;;;9.28;100.00
49341;BME280;35209;51.050;13.678;2023-03-20T01:25:40;99978.72;;;9.43;100.00
49341;BME280;35209;51.050;13.678;2023-03-20T01:30:43;99978.94;;;9.34;100.00
49341;BME280;35209;51.050;13.678;2023-03-20T01:35:46;99975.97;;;9.48;100.00
49341;BME280;35209;51.050;13.678;2023-03-20T01:41:06;99979.00;;;9.32;100.00
49341;BME280;35209;51.050;13.678;2023-03-20T01:46:29;99981.69;;;9.29;100.00
49341;BME280;35209;51.050;13.678;2023-03-20T01:51:46;99977.34;;;9.30;100.00
49341;BME280;35209;51.050;13.678;2023-03-20T01:56:53;99979.34;;;9.51;100.00
49341;BME280;35209;51.050;13.678;2023-03-20T02:01:58;99985.22;;;9.59;100.00
49341;BME280;35209;51.050;13.678;2023-03-20T02:07:02;99978.63;;;9.46;100.00
49341;BME280;35209;51.050;13.678;2023-03-20T02:12:17;99979.31;;;9.53;100.00
49341;BME280;35209;51.050;13.678;2023-03-20T02:17:22;99979.06;;;9.62;100.00
49341;BME280;35209;51.050;13.678;2023-03-20T02:23:11;99980.81;;;9.91;100.00
49341;BME280;35209;51.050;13.678;2023-03-20T02:39:19;99977.91;;;10.00;99.61
49341;BME280;35209;51.050;13.678;2023-03-20T02:44:37;99974.91;;;10.13;97.27
49341;BME280;35209;51.050;13.678;2023-03-20T02:55:17;99992.19;;;9.92;98.87
49341;BME280;35209;51.050;13.678;2023-03-20T03:00:37;99978.09;;;10.22;96.05
49341;BME280;35209;51.050;13.678;2023-03-20T03:05:58;99969.50;;;10.17;96.40
49341;BME280;35209;51.050;13.678;2023-03-20T03:11:04;99972.28;;;10.42;93.59
49341;BME280;35209;51.050;13.678;2023-03-20T03:16:15;99981.78;;;10.46;92.59
49341;BME280;35209;51.050;13.678;2023-03-20T03:21:20;99971.97;;;10.23;94.16
49341;BME280;35209;51.050;13.678;2023-03-20T03:26:26;99972.66;;;10.30;93.76
49341;BME280;35209;51.050;13.678;2023-03-20T03:31:31;99969.00;;;10.06;96.36
49341;BME280;35209;51.050;13.678;2023-03-20T03:42:08;99962.31;;;10.24;94.49
49341;BME280;35209;51.050;13.678;2023-03-20T03:47:15;99970.22;;;9.94;97.21
49341;BME280;35209;51.050;13.678;2023-03-20T03:52:22;99967.69;;;9.91;97.75
49341;BME280;35209;51.050;13.678;2023-03-20T03:57:49;99965.41;;;10.08;95.90
49341;BME280;35209;51.050;13.678;2023-03-20T04:02:56;99964.47;;;10.11;95.11
49341;BME280;35209;51.050;13.678;2023-03-20T04:08:00;99971.44;;;10.12;94.28
49341;BME280;35209;51.050;13.678;2023-03-20T04:13:02;99964.94;;;10.24;93.52
49341;BME280;35209;51.050;13.678;2023-03-20T04:18:04;99973.88;;;10.46;91.40
49341;BME280;35209;51.050;13.678;2023-03-20T04:23:06;99976.13;;;10.58;90.40
49341;BME280;35209;51.050;13.678;2023-03-20T04:28:09;99968.47;;;10.51;90.94
49341;BME280;35209;51.050;13.678;2023-03-20T04:33:35;99986.88;;;10.51;90.65
49341;BME280;35209;51.050;13.678;2023-03-20T04:39:07;99978.38;;;10.43;91.36
49341;BME280;35209;51.050;13.678;2023-03-20T04:44:08;99982.69;;;10.45;90.58
49341;BME280;35209;51.050;13.678;2023-03-20T04:49:10;99983.06;;;10.33;91.36
49341;BME280;35209;51.050;13.678;2023-03-20T04:54:12;99987.97;;;10.44;90.59
49341;BME280;35209;51.050;13.678;2023-03-20T04:59:15;99991.25;;;10.22;92.17
49341;BME280;35209;51.050;13.678;2023-03-20T05:04:17;100001.69;;;10.25;91.69
49341;BME280;35209;51.050;13.678;2023-03-20T05:09:20;100006.03;;;10.26;91.47
49341;BME280;35209;51.050;13.678;2023-03-20T05:14:24;99998.13;;;10.28;91.53
49341;BME280;35209;51.050;13.678;2023-03-20T05:19:46;100020.13;;;10.22;92.25
49341;BME280;35209;51.050;13.678;2023-03-20T05:25:09;100027.66;;;10.36;90.96
49341;BME280;35209;51.050;13.678;2023-03-20T05:30:17;100029.66;;;10.28;91.66
49341;BME280;35209;51.050;13.678;2023-03-20T05:35:46;100030.31;;;10.34;90.94
49341;BME280;35209;51.050;13.678;2023-03-20T05:41:00;100038.81;;;10.43;90.73
49341;BME280;35209;51.050;13.678;2023-03-20T05:46:20;100046.66;;;10.44;89.83
49341;BME280;35209;51.050;13.678;2023-03-20T05:51:42;100052.31;;;10.32;91.81
49341;BME280;35209;51.050;13.678;2023-03-20T05:56:53;100055.09;;;10.26;92.28
49341;BME280;35209;51.050;13.678;2023-03-20T06:02:00;100057.44;;;10.35;91.05
49341;BME280;35209;51.050;13.678;2023-03-20T06:07:06;100055.41;;;10.45;90.55
49341;BME280;35209;51.050;13.678;2023-03-20T06:12:09;100056.72;;;10.30;91.15
49341;BME280;35209;51.050;13.678;2023-03-20T06:17:12;100056.88;;;10.53;89.61
49341;BME280;35209;51.050;13.678;2023-03-20T06:22:15;100061.25;;;10.54;90.46
49341;BME280;35209;51.050;13.678;2023-03-20T06:27:17;100065.72;;;10.79;87.23
49341;BME280;35209;51.050;13.678;2023-03-20T06:32:22;100074.53;;;10.50;89.44
49341;BME280;35209;51.050;13.678;2023-03-20T06:37:25;100075.81;;;10.37;91.29
49341;BME280;35209;51.050;13.678;2023-03-20T06:42:34;100073.97;;;10.39;89.65
49341;BME280;35209;51.050;13.678;2023-03-20T06:47:38;100072.91;;;10.44;90.32
49341;BME280;35209;51.050;13.678;2023-03-20T06:52:40;100074.25;;;10.57;89.87
49341;BME280;35209;51.050;13.678;2023-03-20T06:58:00;100073.84;;;10.98;87.63
49341;BME280;35209;51.050;13.678;2023-03-20T07:03:03;100072.25;;;11.20;87.11
49341;BME280;35209;51.050;13.678;2023-03-20T07:08:05;100062.72;;;11.43;85.58
49341;BME280;35209;51.050;13.678;2023-03-20T07:13:08;100059.25;;;11.41;85.91
49341;BME280;35209;51.050;13.678;2023-03-20T07:18:14;100058.41;;;11.65;86.16
49341;BME280;35209;51.050;13.678;2023-03-20T07:23:16;100070.94;;;12.30;82.36
49341;BME280;35209;51.050;13.678;2023-03-20T07:28:18;100075.47;;;12.27;81.48
49341;BME280;35209;51.050;13.678;2023-03-20T07:33:25;100076.81;;;12.82;79.19
49341;BME280;35209;51.050;13.678;2023-03-20T07:38:27;100074.97;;;12.84;79.68
49341;BME280;35209;51.050;13.678;2023-03-20T07:43:39;100085.44;;;13.08;78.94
49341;BME280;35209;51.050;13.678;2023-03-20T07:48:58;100084.44;;;13.32;78.45
49341;BME280;35209;51.050;13.678;2023-03-20T07:53:59;100084.72;;;13.47;75.76
49341;BME280;35209;51.050;13.678;2023-03-20T07:59:01;100093.94;;;13.14;77.96
49341;BME280;35209;51.050;13.678;2023-03-20T08:04:03;100097.16;;;12.79;78.27
49341;BME280;35209;51.050;13.678;2023-03-20T08:09:05;100096.97;;;12.61;78.69
49341;BME280;35209;51.050;13.678;2023-03-20T08:14:07;100092.13;;;12.73;78.92
49341;BME280;35209;51.050;13.678;2023-03-20T08:19:09;100097.78;;;12.63;79.74
49341;BME280;35209;51.050;13.678;2023-03-20T08:24:11;100103.59;;;12.50;80.93
49341;BME280;35209;51.050;13.678;2023-03-20T08:29:13;100107.53;;;12.38;82.26
49341;BME280;35209;51.050;13.678;2023-03-20T08:34:17;100098.59;;;12.42;80.71
49341;BME280;35209;51.050;13.678;2023-03-20T08:39:19;100105.09;;;12.33;82.50
49341;BME280;35209;51.050;13.678;2023-03-20T08:44:22;100109.19;;;12.17;85.54
49341;BME280;35209;51.050;13.678;2023-03-20T08:49:24;100106.13;;;12.53;83.48
49341;BME280;35209;51.050;13.678;2023-03-20T08:54:26;100109.19;;;12.86;80.63
49341;BME280;35209;51.050;13.678;2023-03-20T08:59:28;100116.16;;;12.65;80.78
49341;BME280;35209;51.050;13.678;2023-03-20T09:04:29;100118.88;;;12.63;81.79
49341;BME280;35209;51.050;13.678;2023-03-20T09:09:31;100122.00;;;12.73;81.61
49341;BME280;35209;51.050;13.678;2023-03-20T09:14:33;100120.69;;;12.85;82.17
49341;BME280;35209;51.050;13.678;2023-03-20T09:19:35;100115.59;;;13.02;81.50
49341;BME280;35209;51.050;13.678;2023-03-20T09:24:40;100118.72;;;13.34;79.46
49341;BME280;35209;51.050;13.678;2023-03-20T09:29:42;100113.75;;;13.26;79.51
49341;BME280;35209;51.050;13.678;2023-03-20T09:34:44;100123.91;;;13.35;79.61
49341;BME280;35209;51.050;13.678;2023-03-20T09:39:46;100130.25;;;13.31;79.40
49341;BME280;35209;51.050;13.678;2023-03-20T09:45:09;100135.66;;;13.28;79.67
49341;BME280;35209;51.050;13.678;2023-03-20T09:50:29;100141.31;;;13.61;78.91
49341;BME280;35209;51.050;13.678;2023-03-20T09:55:38;100144.84;;;13.18;79.69
49341;BME280;35209;51.050;13.678;2023-03-20T10:00:44;100149.22;;;12.97;82.38
49341;BME280;35209;51.050;13.678;2023-03-20T10:05:55;100146.41;;;13.02;81.67
49341;BME280;35209;51.050;13.678;2023-03-20T10:11:39;100142.41;;;13.35;82.56
49341;BME280;35209;51.050;13.678;2023-03-20T10:22:19;100149.84;;;14.47;74.45
49341;BME280;35209;51.050;13.678;2023-03-20T10:32:35;100133.31;;;14.81;71.62
49341;BME280;35209;51.050;13.678;2023-03-20T10:43:19;100145.38;;;15.05;71.96
49341;BME280;35209;51.050;13.678;2023-03-20T10:48:37;100144.19;;;14.75;72.05
49341;BME280;35209;51.050;13.678;2023-03-20T10:58:56;100139.19;;;13.70;77.91
49341;BME280;35209;51.050;13.678;2023-03-20T11:04:00;100139.06;;;13.73;79.37
49341;BME280;35209;51.050;13.678;2023-03-20T11:09:17;100141.16;;;14.05;78.64
49341;BME280;35209;51.050;13.678;2023-03-20T11:14:22;100138.81;;;13.99;77.29
49341;BME280;35209;51.050;13.678;2023-03-20T11:19:24;100139.56;;;13.40;81.56
49341;BME280;35209;51.050;13.678;2023-03-20T11:24:46;100132.09;;;13.29;81.63
49341;BME280;35209;51.050;13.678;2023-03-20T11:29:50;100135.63;;;13.50;80.62
49341;BME280;35209;51.050;13.678;2023-03-20T11:34:52;100130.84;;;13.16;82.47
49341;BME280;35209;51.050;13.678;2023-03-20T11:45:17;100115.69;;;13.21;82.66
49341;BME280;35209;51.050;13.678;2023-03-20T11:50:34;100120.22;;;13.40;82.81
49341;BME280;35209;51.050;13.678;2023-03-20T11:55:37;100120.22;;;13.18;83.13
49341;BME280;35209;51.050;13.678;2023-03-20T12:00:40;100110.53;;;13.18;82.74
49341;BME280;35209;51.050;13.678;2023-03-20T12:05:43;100102.31;;;13.26;82.97
49341;BME280;35209;51.050;13.678;2023-03-20T12:10:50;100102.31;;;13.26;83.60
49341;BME280;35209;51.050;13.678;2023-03-20T12:16:10;100093.19;;;12.91;84.56
49341;BME280;35209;51.050;13.678;2023-03-20T12:21:22;100104.66;;;12.90;84.79
49341;BME280;35209;51.050;13.678;2023-03-20T12:32:04;100097.41;;;12.73;87.50
49341;BME280;35209;51.050;13.678;2023-03-20T12:37:09;100097.53;;;12.70;87.31
49341;BME280;35209;51.050;13.678;2023-03-20T12:42:37;100090.16;;;12.56;87.41
49341;BME280;35209;51.050;13.678;2023-03-20T13:25:29;100054.66;;;12.86;86.67
49341;BME280;35209;51.050;13.678;2023-03-20T13:30:43;100048.44;;;12.87;87.47
49341;BME280;35209;51.050;13.678;2023-03-20T13:35:53;100049.63;;;13.02;86.31
49341;BME280;35209;51.050;13.678;2023-03-20T13:41:03;100043.41;;;13.03;85.98
49341;BME280;35209;51.050;13.678;2023-03-20T13:46:13;100043.16;;;12.87;87.28
49341;BME280;35209;51.050;13.678;2023-03-20T13:51:38;100041.16;;;12.72;87.26
49341;BME280;35209;51.050;13.678;2023-03-20T14:01:59;100042.81;;;12.75;87.82
49341;BME280;35209;51.050;13.678;2023-03-20T14:07:35;100042.47;;;12.62;88.83
49341;BME280;35209;51.050;13.678;2023-03-20T14:12:38;100043.69;;;12.53;90.54
49341;BME280;35209;51.050;13.678;2023-03-20T14:17:42;100046.56;;;12.47;90.42
49341;BME280;35209;51.050;13.678;2023-03-20T14:22:45;100043.16;;;12.22;91.31
49341;BME280;35209;51.050;13.678;2023-03-20T14:27:53;100042.53;;;12.15;92.79
49341;BME280;35209;51.050;13.678;2023-03-20T14:38:34;100044.75;;;11.79;98.00
49341;BME280;35209;51.050;13.678;2023-03-20T14:43:57;100042.94;;;11.56;100.00
49341;BME280;35209;51.050;13.678;2023-03-20T14:59:24;100034.25;;;11.29;100.00
49341;BME280;35209;51.050;13.678;2023-03-20T15:04:35;100042.00;;;11.32;100.00
49341;BME280;35209;51.050;13.678;2023-03-20T15:09:42;100049.59;;;11.16;100.00
49341;BME280;35209;51.050;13.678;2023-03-20T15:14:51;100054.84;;;11.41;100.00
49341;BME280;35209;51.050;13.678;2023-03-20T15:20:01;100045.50;;;11.32;100.00
49341;BME280;35209;51.050;13.678;2023-03-20T15:25:03;100046.06;;;10.91;100.00
49341;BME280;35209;51.050;13.678;2023-03-20T15:30:06;100041.88;;;10.83;100.00
49341;BME280;35209;51.050;13.678;2023-03-20T15:35:26;100038.41;;;10.83;100.00
49341;BME280;35209;51.050;13.678;2023-03-20T15:40:31;100029.25;;;10.95;100.00
49341;BME280;35209;51.050;13.678;2023-03-20T15:45:52;100033.22;;;10.81;100.00
49341;BME280;35209;51.050;13.678;2023-03-20T15:51:10;100030.38;;;10.88;100.00
49341;BME280;35209;51.050;13.678;2023-03-20T15:56:16;100035.00;;;10.79;100.00
49341;BME280;35209;51.050;13.678;2023-03-20T16:01:22;100047.06;;;10.86;100.00
49341;BME280;35209;51.050;13.678;2023-03-20T16:06:24;100034.28;;;10.76;100.00
49341;BME280;35209;51.050;13.678;2023-03-20T16:11:38;100032.81;;;10.67;100.00
49341;BME280;35209;51.050;13.678;2023-03-20T16:16:41;100039.81;;;10.67;100.00
49341;BME280;35209;51.050;13.678;2023-03-20T16:21:48;100037.00;;;10.99;100.00
49341;BME280;35209;51.050;13.678;2023-03-20T16:26:52;100040.09;;;10.85;100.00
49341;BME280;35209;51.050;13.678;2023-03-20T16:32:17;100037.84;;;10.73;100.00
49341;BME280;35209;51.050;13.678;2023-03-20T16:37:27;100044.59;;;10.82;100.00
49341;BME280;35209;51.050;13.678;2023-03-20T16:42:29;100035.22;;;10.73;100.00
49341;BME280;35209;51.050;13.678;2023-03-20T16:47:35;100029.19;;;10.70;100.00
49341;BME280;35209;51.050;13.678;2023-03-20T16:52:41;100027.34;;;10.73;100.00
49341;BME280;35209;51.050;13.678;2023-03-20T16:57:47;100030.03;;;10.72;100.00
49341;BME280;35209;51.050;13.678;2023-03-20T17:02:57;100035.84;;;10.53;100.00
49341;BME280;35209;51.050;13.678;2023-03-20T17:08:05;100027.44;;;10.70;100.00
49341;BME280;35209;51.050;13.678;2023-03-20T17:13:11;100037.19;;;10.67;100.00
49341;BME280;35209;51.050;13.678;2023-03-20T17:18:13;100034.19;;;10.51;100.00
49341;BME280;35209;51.050;13.678;2023-03-20T17:23:19;100032.22;;;10.57;100.00
49341;BME280;35209;51.050;13.678;2023-03-20T17:28:23;100025.25;;;10.56;100.00
49341;BME280;35209;51.050;13.678;2023-03-20T17:33:28;100031.78;;;10.43;100.00
49341;BME280;35209;51.050;13.678;2023-03-20T17:38:30;100036.88;;;10.49;100.00
49341;BME280;35209;51.050;13.678;2023-03-20T17:43:32;100037.75;;;10.48;100.00
49341;BME280;35209;51.050;13.678;2023-03-20T17:48:33;100024.00;;;10.40;100.00
49341;BME280;35209;51.050;13.678;2023-03-20T17:53:35;100022.41;;;10.36;100.00
49341;BME280;35209;51.050;13.678;2023-03-20T17:58:37;100029.25;;;10.40;100.00
49341;BME280;35209;51.050;13.678;2023-03-20T18:03:39;100022.06;;;10.47;100.00
49341;BME280;35209;51.050;13.678;2023-03-20T18:08:41;100032.16;;;10.31;100.00
49341;BME280;35209;51.050;13.678;2023-03-20T18:13:43;100032.03;;;10.35;100.00
49341;BME280;35209;51.050;13.678;2023-03-20T18:18:45;100027.53;;;10.39;100.00
49341;BME280;35209;51.050;13.678;2023-03-20T18:23:47;100037.09;;;10.42;100.00
49341;BME280;35209;51.050;13.678;2023-03-20T18:28:50;100028.78;;;10.27;100.00
49341;BME280;35209;51.050;13.678;2023-03-20T18:33:53;100036.53;;;10.32;100.00
49341;BME280;35209;51.050;13.678;2023-03-20T18:38:55;100034.78;;;10.31;100.00
49341;BME280;35209;51.050;13.678;2023-03-20T18:43:57;100025.66;;;10.15;100.00
49341;BME280;35209;51.050;13.678;2023-03-20T18:48:58;100036.50;;;10.02;100.00
49341;BME280;35209;51.050;13.678;2023-03-20T18:54:00;100048.09;;;9.95;100.00
49341;BME280;35209;51.050;13.678;2023-03-20T18:59:04;100050.72;;;9.95;100.00
49341;BME280;35209;51.050;13.678;2023-03-20T19:04:09;100051.81;;;9.88;100.00
49341;BME280;35209;51.050;13.678;2023-03-20T19:09:11;100048.34;;;9.86;100.00
49341;BME280;35209;51.050;13.678;2023-03-20T19:14:13;100044.81;;;9.87;100.00
49341;BME280;35209;51.050;13.678;2023-03-20T19:19:15;100038.25;;;10.33;100.00
49341;BME280;35209;51.050;13.678;2023-03-20T19:24:16;100036.31;;;10.08;100.00
49341;BME280;35209;51.050;13.678;2023-03-20T19:29:21;100037.72;;;10.20;100.00
49341;BME280;35209;51.050;13.678;2023-03-20T19:34:23;100028.00;;;10.24;100.00
49341;BME280;35209;51.050;13.678;2023-03-20T19:39:45;100033.13;;;10.28;100.00
49341;BME280;35209;51.050;13.678;2023-03-20T19:44:46;100025.88;;;10.37;100.00
49341;BME280;35209;51.050;13.678;2023-03-20T19:49:48;100034.00;;;10.29;100.00
49341;BME280;35209;51.050;13.678;2023-03-20T19:54:50;100029.94;;;10.17;100.00
49341;BME280;35209;51.050;13.678;2023-03-20T20:00:03;100022.25;;;10.11;100.00
49341;BME280;35209;51.050;13.678;2023-03-20T20:05:28;100019.34;;;9.91;100.00
49341;BME280;35209;51.050;13.678;2023-03-20T20:10:34;100013.22;;;9.90;100.00
49341;BME280;35209;51.050;13.678;2023-03-20T20:15:36;100020.44;;;9.83;100.00
49341;BME280;35209;51.050;13.678;2023-03-20T20:20:40;100014.03;;;9.63;100.00
49341;BME280;35209;51.050;13.678;2023-03-20T20:26:05;100007.44;;;9.48;100.00
49341;BME280;35209;51.050;13.678;2023-03-20T20:31:10;100010.28;;;9.40;100.00
49341;BME280;35209;51.050;13.678;2023-03-20T20:36:11;100004.88;;;9.14;100.00
49341;BME280;35209;51.050;13.678;2023-03-20T20:41:35;100003.66;;;9.27;100.00
49341;BME280;35209;51.050;13.678;2023-03-20T20:46:36;100007.94;;;9.29;100.00
49341;BME280;35209;51.050;13.678;2023-03-20T20:51:38;100009.19;;;9.47;100.00
49341;BME280;35209;51.050;13.678;2023-03-20T20:56:40;100002.03;;;9.54;100.00
49341;BME280;35209;51.050;13.678;2023-03-20T21:01:42;100001.31;;;9.47;100.00
49341;BME280;35209;51.050;13.678;2023-03-20T21:06:44;99996.25;;;9.72;100.00
49341;BME280;35209;51.050;13.678;2023-03-20T21:12:07;100005.69;;;9.79;100.00
49341;BME280;35209;51.050;13.678;2023-03-20T21:17:11;100013.41;;;9.84;100.00
49341;BME280;35209;51.050;13.678;2023-03-20T21:22:13;100010.78;;;9.84;100.00
49341;BME280;35209;51.050;13.678;2023-03-20T21:27:18;100010.09;;;9.77;100.00
49341;BME280;35209;51.050;13.678;2023-03-20T21:32:20;100014.69;;;9.71;100.00
49341;BME280;35209;51.050;13.678;2023-03-20T21:37:22;100019.09;;;9.69;100.00
49341;BME280;35209;51.050;13.678;2023-03-20T21:42:44;100019.47;;;9.86;100.00
49341;BME280;35209;51.050;13.678;2023-03-20T21:47:50;100024.47;;;9.64;100.00
49341;BME280;35209;51.050;13.678;2023-03-20T21:53:12;100019.78;;;9.44;100.00
49341;BME280;35209;51.050;13.678;2023-03-20T21:58:37;100034.19;;;9.60;100.00
49341;BME280;35209;51.050;13.678;2023-03-20T22:03:59;100023.19;;;9.79;100.00
49341;BME280;35209;51.050;13.678;2023-03-20T22:09:25;100025.25;;;9.68;100.00
49341;BME280;35209;51.050;13.678;2023-03-20T22:14:47;100028.22;;;9.55;100.00
49341;BME280;35209;51.050;13.678;2023-03-20T22:20:09;100030.72;;;9.60;100.00
49341;BME280;35209;51.050;13.678;2023-03-20T22:25:31;100035.63;;;9.72;100.00
49341;BME280;35209;51.050;13.678;2023-03-20T22:30:53;100044.53;;;9.67;100.00
49341;BME280;35209;51.050;13.678;2023-03-20T22:36:15;100040.28;;;9.63;100.00
49341;BME280;35209;51.050;13.678;2023-03-20T22:41:38;100042.63;;;9.72;100.00
49341;BME280;35209;51.050;13.678;2023-03-20T22:47:00;100050.81;;;9.61;100.00
49341;BME280;35209;51.050;13.678;2023-03-20T22:52:01;100048.63;;;9.77;100.00
49341;BME280;35209;51.050;13.678;2023-03-20T22:57:20;100041.84;;;9.70;100.00
49341;BME280;35209;51.050;13.678;2023-03-20T23:02:35;100030.81;;;9.57;100.00
49341;BME280;35209;51.050;13.678;2023-03-20T23:07:37;100025.44;;;9.62;100.00
49341;BME280;35209;51.050;13.678;2023-03-20T23:12:39;100029.78;;;9.63;100.00
49341;BME280;35209;51.050;13.678;2023-03-20T23:17:44;100029.31;;;9.47;100.00
49341;BME280;35209;51.050;13.678;2023-03-20T23:22:46;100036.50;;;9.40;100.00
49341;BME280;35209;51.050;13.678;2023-03-20T23:27:48;100028.25;;;9.54;100.00
49341;BME280;35209;51.050;13.678;2023-03-20T23:32:49;100031.94;;;9.48;100.00
49341;BME280;35209;51.050;13.678;2023-03-20T23:37:51;100028.53;;;9.45;100.00
49341;BME280;35209;51.050;13.678;2023-03-20T23:42:53;100031.31;;;9.39;100.00
49341;BME280;35209;51.050;13.678;2023-03-20T23:47:54;100027.53;;;9.49;100.00
49341;BME280;35209;51.050;13.678;2023-03-20T23:52:56;100025.31;;;9.33;100.00
49341;BME280;35209;51.050;13.678;2023-03-20T23:58:14;100020.97;;;9.32;100.00
